Observations for LUTON AIRPORT, United Kingdom (EGGW)

EGGW 242020Z AUTO 21014KT 9999 -RA BKN013 OVC029 12/10 Q1007
EGGW 241950Z AUTO 21014KT 9999 -RA SCT014 BKN035 12/10 Q1007
EGGW 241920Z AUTO 22013KT 9999 BKN012 12/11 Q1007   
EGGW 241850Z AUTO 21014KT 9999 BKN009 OVC013 13/11 Q1007
EGGW 241820Z AUTO 22014KT 9999 BKN009 OVC012 13/11 Q1008
EGGW 241750Z 22014KT 9999 OVC008 13/11 Q1008
EGGW 241720Z AUTO 22013KT 9999 BKN007 OVC010 12/11 Q1008
EGGW 241650Z AUTO 21014KT 9000 -RA BKN005 OVC010 12/11 Q1009 REDZ   
EGGW 241620Z AUTO 21014KT 3600 -RADZ OVC007 13/11 Q1009 
EGGW 241550Z AUTO 21016G26KT 5000 -DZ BKN011 OVC015 13/11 Q1010 
EGGW 241520Z AUTO 21017KT 9999 BKN015 OVC020 14/11 Q1010
EGGW 241450Z AUTO 21015KT 9999 OVC021 15/08 Q1010   
EGGW 241420Z AUTO 21013KT 170V230 9999 BKN029 OVC033 15/07 Q1011
EGGW 241350Z AUTO 19011KT 9999 OVC038 15/08 Q1012   
EGGW 241320Z AUTO 18008KT 150V220 9999 BKN043 14/09 Q1012   
EGGW 241250Z AUTO 19009KT 150V220 9999 OVC049 14/08 Q1013   
EGGW 241220Z AUTO 20010KT 160V240 9999 SCT022 14/09 Q1014   
EGGW 241150Z AUTO 21009KT 9999 FEW022 13/09 Q1014   
EGGW 241120Z AUTO 21007KT 9999 NCD 13/08 Q1014  
EGGW 241050Z AUTO 21007KT 170V240 9999 OVC049 12/08 Q1015   
EGGW 241020Z AUTO 23006KT 9999 FEW016 OVC049 11/08 Q1015
EGGW 240950Z AUTO 24009KT 9999 -RA NCD 11/08 Q1015  
EGGW 240920Z AUTO 25011KT 9999 -RA BKN015 BKN032 11/08 Q1015
EGGW 240850Z AUTO 25013KT 9999 FEW017 12/08 Q1015   
EGGW 240820Z AUTO 25011KT 9999 NCD 11/08 Q1015  
EGGW 240750Z AUTO 24011KT 9999 NCD 11/08 Q1015  
EGGW 240720Z AUTO 24012KT 9999 NCD 11/08 Q1015  
EGGW 240650Z AUTO 24011KT 9999 NCD 11/08 Q1015  
EGGW 240620Z AUTO 25013KT 9999 FEW011 10/09 Q1014   
EGGW 240550Z AUTO 25013KT 9999 BKN011 10/08 Q1014   
EGGW 240520Z AUTO 25012KT 9999 NCD 10/08 Q1014  
EGGW 240450Z AUTO 24015KT 9999 SCT021 10/08 Q1014   
EGGW 240420Z AUTO 24014KT 9999 NCD 10/08 Q1014  
EGGW 240350Z AUTO 25013KT 9999 BKN014 10/08 Q1014   
EGGW 240320Z AUTO 25015KT 9999 BKN014 OVC022 11/08 Q1014
EGGW 240250Z AUTO 26014KT 9999 SCT013 BKN023 11/08 Q1014
EGGW 240220Z AUTO 25011KT 9999 BKN012 11/09 Q1014   
EGGW 240150Z AUTO 24011KT 9999 BKN009 OVC018 10/09 Q1014
EGGW 240120Z AUTO 25013KT 9999 BKN009 OVC015 10/09 Q1014
EGGW 240050Z AUTO 25015KT 9999 OVC012 11/08 Q1014   
EGGW 240020Z AUTO 24014KT 9999 OVC014 11/08 Q1014   
EGGW 232350Z AUTO 23013KT 9999 OVC014 11/08 Q1014   
EGGW 232320Z AUTO 24014KT 9999 OVC015 11/08 Q1014   
EGGW 232250Z AUTO 24015KT 9999 OVC016 11/08 Q1014   
EGGW 232220Z AUTO 22012KT 9999 OVC020 12/08 Q1014   
EGGW 232150Z AUTO 23012KT 9999 BKN022 OVC031 12/08 Q1014
EGGW 232120Z AUTO 24013KT 9999 BKN023 BKN035 12/08 Q1014
EGGW 232050Z AUTO 23010KT 9999 BKN027 BKN043 12/08 Q1015
EGGW 232020Z AUTO 23009KT 9999 BKN029 12/07 Q1015   
EGGW 231950Z AUTO 23012KT 9999 NCD 12/07 Q1015